sensor_id;sensor_type;location;lat;lon;timestamp;temperature;humidity
46926;DHT22;32667;48.248;-1.700;2023-02-28T00:00:28;3.50;73.10
46926;DHT22;32667;48.248;-1.700;2023-02-28T00:02:54;3.50;73.10
46926;DHT22;32667;48.248;-1.700;2023-02-28T00:05:20;3.50;73.00
46926;DHT22;32667;48.248;-1.700;2023-02-28T00:07:46;3.50;73.10
46926;DHT22;32667;48.248;-1.700;2023-02-28T00:10:12;3.40;73.10
46926;DHT22;32667;48.248;-1.700;2023-02-28T00:12:38;3.40;73.10
46926;DHT22;32667;48.248;-1.700;2023-02-28T00:15:10;3.40;73.00
46926;DHT22;32667;48.248;-1.700;2023-02-28T00:17:38;3.40;73.00
46926;DHT22;32667;48.248;-1.700;2023-02-28T00:20:06;3.40;73.10
46926;DHT22;32667;48.248;-1.700;2023-02-28T00:22:41;3.40;73.10
46926;DHT22;32667;48.248;-1.700;2023-02-28T00:25:10;3.40;73.00
46926;DHT22;32667;48.248;-1.700;2023-02-28T00:27:38;3.40;73.00
46926;DHT22;32667;48.248;-1.700;2023-02-28T00:30:07;3.40;73.00
46926;DHT22;32667;48.248;-1.700;2023-02-28T00:32:33;3.30;73.00
46926;DHT22;32667;48.248;-1.700;2023-02-28T00:35:02;3.40;73.10
46926;DHT22;32667;48.248;-1.700;2023-02-28T00:37:27;3.40;73.00
46926;DHT22;32667;48.248;-1.700;2023-02-28T00:39:55;3.40;73.00
46926;DHT22;32667;48.248;-1.700;2023-02-28T00:42:20;3.40;73.00
46926;DHT22;32667;48.248;-1.700;2023-02-28T00:44:48;3.40;73.00
46926;DHT22;32667;48.248;-1.700;2023-02-28T00:47:16;3.40;73.00
46926;DHT22;32667;48.248;-1.700;2023-02-28T00:49:42;3.40;72.90
46926;DHT22;32667;48.248;-1.700;2023-02-28T00:52:10;3.40;73.00
46926;DHT22;32667;48.248;-1.700;2023-02-28T00:54:38;3.30;72.90
46926;DHT22;32667;48.248;-1.700;2023-02-28T00:57:04;3.30;72.90
46926;DHT22;32667;48.248;-1.700;2023-02-28T00:59:29;3.30;72.90
46926;DHT22;32667;48.248;-1.700;2023-02-28T01:01:57;3.30;73.00
46926;DHT22;32667;48.248;-1.700;2023-02-28T01:04:23;3.30;73.00
46926;DHT22;32667;48.248;-1.700;2023-02-28T01:06:49;3.30;72.90
46926;DHT22;32667;48.248;-1.700;2023-02-28T01:09:14;3.30;73.00
46926;DHT22;32667;48.248;-1.700;2023-02-28T01:11:40;3.30;73.00
46926;DHT22;32667;48.248;-1.700;2023-02-28T01:14:06;3.30;72.90
46926;DHT22;32667;48.248;-1.700;2023-02-28T01:16:32;3.30;73.00
46926;DHT22;32667;48.248;-1.700;2023-02-28T01:18:58;3.30;73.00
46926;DHT22;32667;48.248;-1.700;2023-02-28T01:21:23;3.20;73.00
46926;DHT22;32667;48.248;-1.700;2023-02-28T01:23:49;3.20;73.00
46926;DHT22;32667;48.248;-1.700;2023-02-28T01:26:19;3.20;73.00
46926;DHT22;32667;48.248;-1.700;2023-02-28T01:28:45;3.20;73.00
46926;DHT22;32667;48.248;-1.700;2023-02-28T01:31:11;3.20;73.00
46926;DHT22;32667;48.248;-1.700;2023-02-28T01:33:39;3.10;73.00
46926;DHT22;32667;48.248;-1.700;2023-02-28T01:36:05;3.10;73.10
46926;DHT22;32667;48.248;-1.700;2023-02-28T01:38:32;3.10;73.10
46926;DHT22;32667;48.248;-1.700;2023-02-28T01:40:58;3.10;73.20
46926;DHT22;32667;48.248;-1.700;2023-02-28T01:43:24;3.10;73.20
46926;DHT22;32667;48.248;-1.700;2023-02-28T01:45:50;3.10;73.20
46926;DHT22;32667;48.248;-1.700;2023-02-28T01:48:33;3.10;73.10
46926;DHT22;32667;48.248;-1.700;2023-02-28T01:51:01;3.10;73.10
46926;DHT22;32667;48.248;-1.700;2023-02-28T01:53:39;3.10;73.20
46926;DHT22;32667;48.248;-1.700;2023-02-28T01:56:10;3.10;73.10
46926;DHT22;32667;48.248;-1.700;2023-02-28T01:58:37;3.10;73.10
46926;DHT22;32667;48.248;-1.700;2023-02-28T02:01:03;3.10;73.10
46926;DHT22;32667;48.248;-1.700;2023-02-28T02:03:29;3.10;73.00
46926;DHT22;32667;48.248;-1.700;2023-02-28T02:05:55;3.10;73.00
46926;DHT22;32667;48.248;-1.700;2023-02-28T02:08:26;3.10;73.00
46926;DHT22;32667;48.248;-1.700;2023-02-28T02:10:54;3.00;73.00
46926;DHT22;32667;48.248;-1.700;2023-02-28T02:16:21;3.00;73.00
46926;DHT22;32667;48.248;-1.700;2023-02-28T02:29:01;3.00;73.10
46926;DHT22;32667;48.248;-1.700;2023-02-28T02:31:41;3.00;73.10
46926;DHT22;32667;48.248;-1.700;2023-02-28T02:36:42;3.00;73.10
46926;DHT22;32667;48.248;-1.700;2023-02-28T02:46:43;2.90;73.10
46926;DHT22;32667;48.248;-1.700;2023-02-28T02:49:11;2.80;73.10
46926;DHT22;32667;48.248;-1.700;2023-02-28T02:51:38;2.80;73.20
46926;DHT22;32667;48.248;-1.700;2023-02-28T02:54:08;2.80;73.30
46926;DHT22;32667;48.248;-1.700;2023-02-28T02:56:38;2.80;73.20
46926;DHT22;32667;48.248;-1.700;2023-02-28T02:59:07;2.80;73.20
46926;DHT22;32667;48.248;-1.700;2023-02-28T03:01:34;2.80;73.20
46926;DHT22;32667;48.248;-1.700;2023-02-28T03:04:06;2.80;73.10
46926;DHT22;32667;48.248;-1.700;2023-02-28T03:06:35;2.80;73.10
46926;DHT22;32667;48.248;-1.700;2023-02-28T03:09:02;2.80;73.10
46926;DHT22;32667;48.248;-1.700;2023-02-28T03:11:48;2.80;73.10
46926;DHT22;32667;48.248;-1.700;2023-02-28T03:19:38;2.70;73.20
46926;DHT22;32667;48.248;-1.700;2023-02-28T03:25:05;2.70;73.20
46926;DHT22;32667;48.248;-1.700;2023-02-28T03:30:02;2.70;73.20
46926;DHT22;32667;48.248;-1.700;2023-02-28T03:35:19;2.60;73.20
46926;DHT22;32667;48.248;-1.700;2023-02-28T03:37:47;2.60;73.20
46926;DHT22;32667;48.248;-1.700;2023-02-28T03:40:15;2.60;73.20
46926;DHT22;32667;48.248;-1.700;2023-02-28T03:42:43;2.50;73.20
46926;DHT22;32667;48.248;-1.700;2023-02-28T03:50:39;2.50;73.30
46926;DHT22;32667;48.248;-1.700;2023-02-28T03:55:41;2.40;73.30
46926;DHT22;32667;48.248;-1.700;2023-02-28T04:00:46;2.40;73.30
46926;DHT22;32667;48.248;-1.700;2023-02-28T04:03:13;2.40;73.30
46926;DHT22;32667;48.248;-1.700;2023-02-28T04:06:13;2.40;73.30
46926;DHT22;32667;48.248;-1.700;2023-02-28T04:08:31;2.40;73.40
46926;DHT22;32667;48.248;-1.700;2023-02-28T04:11:08;2.30;73.30
46926;DHT22;32667;48.248;-1.700;2023-02-28T04:13:40;2.40;73.40
46926;DHT22;32667;48.248;-1.700;2023-02-28T04:16:15;2.30;73.30
46926;DHT22;32667;48.248;-1.700;2023-02-28T04:18:41;2.30;73.30
46926;DHT22;32667;48.248;-1.700;2023-02-28T04:21:10;2.30;73.30
46926;DHT22;32667;48.248;-1.700;2023-02-28T04:23:36;2.30;73.30
46926;DHT22;32667;48.248;-1.700;2023-02-28T04:26:02;2.30;73.30
46926;DHT22;32667;48.248;-1.700;2023-02-28T04:28:31;2.30;73.20
46926;DHT22;32667;48.248;-1.700;2023-02-28T04:33:25;2.20;73.30
46926;DHT22;32667;48.248;-1.700;2023-02-28T04:38:25;2.20;73.40
46926;DHT22;32667;48.248;-1.700;2023-02-28T04:40:53;2.20;73.40
46926;DHT22;32667;48.248;-1.700;2023-02-28T04:43:18;2.20;73.40
46926;DHT22;32667;48.248;-1.700;2023-02-28T04:45:44;2.20;73.40
46926;DHT22;32667;48.248;-1.700;2023-02-28T04:48:10;2.10;73.40
46926;DHT22;32667;48.248;-1.700;2023-02-28T04:50:35;2.10;73.40
46926;DHT22;32667;48.248;-1.700;2023-02-28T04:53:03;2.10;73.40
46926;DHT22;32667;48.248;-1.700;2023-02-28T04:55:29;2.10;73.40
46926;DHT22;32667;48.248;-1.700;2023-02-28T04:57:54;2.10;73.40
46926;DHT22;32667;48.248;-1.700;2023-02-28T05:00:20;2.10;73.40
46926;DHT22;32667;48.248;-1.700;2023-02-28T05:02:48;2.10;73.40
46926;DHT22;32667;48.248;-1.700;2023-02-28T05:05:13;2.00;73.40
46926;DHT22;32667;48.248;-1.700;2023-02-28T05:07:55;2.00;73.40
46926;DHT22;32667;48.248;-1.700;2023-02-28T05:10:24;2.00;73.40
46926;DHT22;32667;48.248;-1.700;2023-02-28T05:12:49;2.00;73.40
46926;DHT22;32667;48.248;-1.700;2023-02-28T05:15:15;2.00;74.00
46926;DHT22;32667;48.248;-1.700;2023-02-28T05:17:44;2.00;73.50
46926;DHT22;32667;48.248;-1.700;2023-02-28T05:20:09;2.00;73.50
46926;DHT22;32667;48.248;-1.700;2023-02-28T05:22:49;1.90;73.50
46926;DHT22;32667;48.248;-1.700;2023-02-28T05:25:18;2.00;73.50
46926;DHT22;32667;48.248;-1.700;2023-02-28T05:27:44;2.00;73.50
46926;DHT22;32667;48.248;-1.700;2023-02-28T05:30:10;2.00;73.50
46926;DHT22;32667;48.248;-1.700;2023-02-28T05:32:49;1.90;73.50
46926;DHT22;32667;48.248;-1.700;2023-02-28T05:35:15;1.90;73.50
46926;DHT22;32667;48.248;-1.700;2023-02-28T05:37:40;1.90;73.50
46926;DHT22;32667;48.248;-1.700;2023-02-28T05:40:06;1.90;73.50
46926;DHT22;32667;48.248;-1.700;2023-02-28T05:42:35;1.90;73.50
46926;DHT22;32667;48.248;-1.700;2023-02-28T05:45:04;1.90;73.50
46926;DHT22;32667;48.248;-1.700;2023-02-28T05:47:30;1.80;73.50
46926;DHT22;32667;48.248;-1.700;2023-02-28T05:49:55;1.80;73.50
46926;DHT22;32667;48.248;-1.700;2023-02-28T05:52:23;1.80;73.50
46926;DHT22;32667;48.248;-1.700;2023-02-28T05:54:50;1.80;73.50
46926;DHT22;32667;48.248;-1.700;2023-02-28T05:57:20;1.80;73.60
46926;DHT22;32667;48.248;-1.700;2023-02-28T05:59:46;1.80;73.50
46926;DHT22;32667;48.248;-1.700;2023-02-28T06:02:12;1.80;73.50
46926;DHT22;32667;48.248;-1.700;2023-02-28T06:04:41;1.80;74.10
46926;DHT22;32667;48.248;-1.700;2023-02-28T06:07:09;1.80;73.50
46926;DHT22;32667;48.248;-1.700;2023-02-28T06:09:38;1.80;73.50
46926;DHT22;32667;48.248;-1.700;2023-02-28T06:12:06;1.70;73.50
46926;DHT22;32667;48.248;-1.700;2023-02-28T06:14:36;1.70;73.50
46926;DHT22;32667;48.248;-1.700;2023-02-28T06:17:02;1.70;73.50
46926;DHT22;32667;48.248;-1.700;2023-02-28T06:19:30;1.70;73.50
46926;DHT22;32667;48.248;-1.700;2023-02-28T06:21:56;1.70;74.10
46926;DHT22;32667;48.248;-1.700;2023-02-28T06:24:25;1.70;73.50
46926;DHT22;32667;48.248;-1.700;2023-02-28T06:26:55;1.70;73.50
46926;DHT22;32667;48.248;-1.700;2023-02-28T06:29:21;1.70;73.50
46926;DHT22;32667;48.248;-1.700;2023-02-28T06:31:47;1.70;73.50
46926;DHT22;32667;48.248;-1.700;2023-02-28T06:34:13;1.70;73.50
46926;DHT22;32667;48.248;-1.700;2023-02-28T06:36:39;1.70;73.50
46926;DHT22;32667;48.248;-1.700;2023-02-28T06:39:05;1.70;73.40
46926;DHT22;32667;48.248;-1.700;2023-02-28T06:41:31;1.70;73.40
46926;DHT22;32667;48.248;-1.700;2023-02-28T06:43:56;1.70;73.40
46926;DHT22;32667;48.248;-1.700;2023-02-28T06:46:23;1.70;73.40
46926;DHT22;32667;48.248;-1.700;2023-02-28T06:48:48;1.70;73.40
46926;DHT22;32667;48.248;-1.700;2023-02-28T06:51:15;1.60;73.40
46926;DHT22;32667;48.248;-1.700;2023-02-28T06:53:41;1.60;73.40
46926;DHT22;32667;48.248;-1.700;2023-02-28T06:56:08;1.60;73.40
46926;DHT22;32667;48.248;-1.700;2023-02-28T06:58:34;1.70;73.40
46926;DHT22;32667;48.248;-1.700;2023-02-28T07:01:00;1.60;73.40
46926;DHT22;32667;48.248;-1.700;2023-02-28T07:03:26;1.70;73.30
46926;DHT22;32667;48.248;-1.700;2023-02-28T07:05:53;1.70;73.30
46926;DHT22;32667;48.248;-1.700;2023-02-28T07:08:22;1.70;73.30
46926;DHT22;32667;48.248;-1.700;2023-02-28T07:11:05;1.70;73.20
46926;DHT22;32667;48.248;-1.700;2023-02-28T07:13:38;1.70;73.20
46926;DHT22;32667;48.248;-1.700;2023-02-28T07:16:09;1.70;73.20
46926;DHT22;32667;48.248;-1.700;2023-02-28T07:18:36;1.70;73.20
46926;DHT22;32667;48.248;-1.700;2023-02-28T07:21:04;1.70;73.20
46926;DHT22;32667;48.248;-1.700;2023-02-28T07:23:30;1.70;73.20
46926;DHT22;32667;48.248;-1.700;2023-02-28T07:25:56;1.70;73.20
46926;DHT22;32667;48.248;-1.700;2023-02-28T07:28:22;1.70;73.20
46926;DHT22;32667;48.248;-1.700;2023-02-28T07:30:49;1.70;73.20
46926;DHT22;32667;48.248;-1.700;2023-02-28T07:33:15;1.70;73.20
46926;DHT22;32667;48.248;-1.700;2023-02-28T07:35:41;1.70;73.10
46926;DHT22;32667;48.248;-1.700;2023-02-28T07:38:07;1.70;73.10
46926;DHT22;32667;48.248;-1.700;2023-02-28T07:40:42;1.70;73.10
46926;DHT22;32667;48.248;-1.700;2023-02-28T07:43:08;1.80;73.10
46926;DHT22;32667;48.248;-1.700;2023-02-28T07:45:33;1.80;73.10
46926;DHT22;32667;48.248;-1.700;2023-02-28T07:48:02;1.80;73.00
46926;DHT22;32667;48.248;-1.700;2023-02-28T07:50:27;1.90;73.00
46926;DHT22;32667;48.248;-1.700;2023-02-28T07:52:58;1.90;73.00
46926;DHT22;32667;48.248;-1.700;2023-02-28T07:55:23;1.90;73.00
46926;DHT22;32667;48.248;-1.700;2023-02-28T07:57:51;1.90;73.00
46926;DHT22;32667;48.248;-1.700;2023-02-28T08:00:19;2.00;73.00
46926;DHT22;32667;48.248;-1.700;2023-02-28T08:02:45;2.00;72.80
46926;DHT22;32667;48.248;-1.700;2023-02-28T08:05:10;2.10;72.80
46926;DHT22;32667;48.248;-1.700;2023-02-28T08:07:36;2.10;72.70
46926;DHT22;32667;48.248;-1.700;2023-02-28T08:10:02;2.20;72.70
46926;DHT22;32667;48.248;-1.700;2023-02-28T08:12:28;2.30;72.70
46926;DHT22;32667;48.248;-1.700;2023-02-28T08:14:53;2.30;72.60
46926;DHT22;32667;48.248;-1.700;2023-02-28T08:17:21;2.40;72.50
46926;DHT22;32667;48.248;-1.700;2023-02-28T08:19:49;2.40;72.40
46926;DHT22;32667;48.248;-1.700;2023-02-28T08:22:17;2.50;72.40
46926;DHT22;32667;48.248;-1.700;2023-02-28T08:24:42;2.70;72.40
46926;DHT22;32667;48.248;-1.700;2023-02-28T08:27:11;2.80;72.80
46926;DHT22;32667;48.248;-1.700;2023-02-28T08:29:37;3.00;72.00
46926;DHT22;32667;48.248;-1.700;2023-02-28T08:32:04;3.10;71.80
46926;DHT22;32667;48.248;-1.700;2023-02-28T08:34:29;3.30;71.70
46926;DHT22;32667;48.248;-1.700;2023-02-28T08:37:04;3.40;71.50
46926;DHT22;32667;48.248;-1.700;2023-02-28T08:39:30;3.60;71.30
46926;DHT22;32667;48.248;-1.700;2023-02-28T08:41:55;3.80;71.20
46926;DHT22;32667;48.248;-1.700;2023-02-28T08:44:21;3.90;71.10
46926;DHT22;32667;48.248;-1.700;2023-02-28T08:46:47;4.00;71.00
46926;DHT22;32667;48.248;-1.700;2023-02-28T08:49:12;4.10;70.80
46926;DHT22;32667;48.248;-1.700;2023-02-28T08:51:40;4.20;70.90
46926;DHT22;32667;48.248;-1.700;2023-02-28T08:54:10;4.30;70.90
46926;DHT22;32667;48.248;-1.700;2023-02-28T08:56:38;4.30;70.80
46926;DHT22;32667;48.248;-1.700;2023-02-28T08:59:06;4.50;70.90
46926;DHT22;32667;48.248;-1.700;2023-02-28T09:01:34;4.50;70.70
46926;DHT22;32667;48.248;-1.700;2023-02-28T09:04:01;4.50;70.70
46926;DHT22;32667;48.248;-1.700;2023-02-28T09:06:27;4.60;70.80
46926;DHT22;32667;48.248;-1.700;2023-02-28T09:08:53;4.60;70.80
46926;DHT22;32667;48.248;-1.700;2023-02-28T09:11:22;4.70;70.90
46926;DHT22;32667;48.248;-1.700;2023-02-28T09:13:47;4.80;70.80
46926;DHT22;32667;48.248;-1.700;2023-02-28T09:16:13;4.90;70.80
46926;DHT22;32667;48.248;-1.700;2023-02-28T09:18:42;4.90;70.70
46926;DHT22;32667;48.248;-1.700;2023-02-28T09:21:14;5.00;70.70
46926;DHT22;32667;48.248;-1.700;2023-02-28T09:23:42;5.10;70.60
46926;DHT22;32667;48.248;-1.700;2023-02-28T09:26:12;5.20;70.60
46926;DHT22;32667;48.248;-1.700;2023-02-28T09:28:43;5.30;70.60
46926;DHT22;32667;48.248;-1.700;2023-02-28T09:31:13;5.40;70.50
46926;DHT22;32667;48.248;-1.700;2023-02-28T09:33:38;5.50;70.40
46926;DHT22;32667;48.248;-1.700;2023-02-28T09:36:04;5.50;70.30
46926;DHT22;32667;48.248;-1.700;2023-02-28T09:38:30;5.60;70.30
46926;DHT22;32667;48.248;-1.700;2023-02-28T09:40:56;5.70;70.30
46926;DHT22;32667;48.248;-1.700;2023-02-28T09:43:23;5.70;70.30
46926;DHT22;32667;48.248;-1.700;2023-02-28T09:45:59;5.80;70.20
46926;DHT22;32667;48.248;-1.700;2023-02-28T09:48:33;5.90;70.30
46926;DHT22;32667;48.248;-1.700;2023-02-28T09:51:05;5.90;70.20
46926;DHT22;32667;48.248;-1.700;2023-02-28T09:53:37;6.00;70.20
46926;DHT22;32667;48.248;-1.700;2023-02-28T10:01:43;6.10;70.00
46926;DHT22;32667;48.248;-1.700;2023-02-28T10:06:59;6.20;70.00
46926;DHT22;32667;48.248;-1.700;2023-02-28T10:09:27;6.20;70.00
46926;DHT22;32667;48.248;-1.700;2023-02-28T10:11:56;6.30;70.10
46926;DHT22;32667;48.248;-1.700;2023-02-28T10:14:23;6.40;70.00
46926;DHT22;32667;48.248;-1.700;2023-02-28T10:19:25;6.40;69.90
46926;DHT22;32667;48.248;-1.700;2023-02-28T10:21:58;6.50;69.80
46926;DHT22;32667;48.248;-1.700;2023-02-28T10:24:44;6.50;69.80
46926;DHT22;32667;48.248;-1.700;2023-02-28T10:27:20;6.50;69.90
46926;DHT22;32667;48.248;-1.700;2023-02-28T10:29:49;6.50;69.90
46926;DHT22;32667;48.248;-1.700;2023-02-28T10:32:19;6.50;70.00
46926;DHT22;32667;48.248;-1.700;2023-02-28T10:34:50;6.50;70.00
46926;DHT22;32667;48.248;-1.700;2023-02-28T10:37:19;6.50;70.00
46926;DHT22;32667;48.248;-1.700;2023-02-28T10:39:45;6.50;70.00
46926;DHT22;32667;48.248;-1.700;2023-02-28T10:42:27;6.60;70.00
46926;DHT22;32667;48.248;-1.700;2023-02-28T10:47:35;6.60;70.00
46926;DHT22;32667;48.248;-1.700;2023-02-28T10:50:08;6.60;70.00
46926;DHT22;32667;48.248;-1.700;2023-02-28T10:52:52;6.60;69.90
46926;DHT22;32667;48.248;-1.700;2023-02-28T10:55:22;6.70;70.00
46926;DHT22;32667;48.248;-1.700;2023-02-28T10:57:48;6.60;70.00
46926;DHT22;32667;48.248;-1.700;2023-02-28T11:02:43;6.70;70.10
46926;DHT22;32667;48.248;-1.700;2023-02-28T11:05:32;6.70;70.00
46926;DHT22;32667;48.248;-1.700;2023-02-28T11:08:01;6.80;70.10
46926;DHT22;32667;48.248;-1.700;2023-02-28T11:10:30;6.80;70.10
46926;DHT22;32667;48.248;-1.700;2023-02-28T11:13:00;6.80;70.00
46926;DHT22;32667;48.248;-1.700;2023-02-28T11:15:32;6.90;70.00
46926;DHT22;32667;48.248;-1.700;2023-02-28T11:20:39;7.00;69.90
46926;DHT22;32667;48.248;-1.700;2023-02-28T11:23:05;7.00;69.80
46926;DHT22;32667;48.248;-1.700;2023-02-28T11:25:36;7.10;69.80
46926;DHT22;32667;48.248;-1.700;2023-02-28T11:31:01;7.20;69.80
46926;DHT22;32667;48.248;-1.700;2023-02-28T11:33:40;7.30;69.70
46926;DHT22;32667;48.248;-1.700;2023-02-28T11:36:11;7.40;69.60
46926;DHT22;32667;48.248;-1.700;2023-02-28T11:38:37;7.50;69.50
46926;DHT22;32667;48.248;-1.700;2023-02-28T11:41:25;7.50;69.40
46926;DHT22;32667;48.248;-1.700;2023-02-28T11:46:27;7.70;69.20
46926;DHT22;32667;48.248;-1.700;2023-02-28T11:51:46;7.70;69.20
46926;DHT22;32667;48.248;-1.700;2023-02-28T11:54:23;7.70;69.20
46926;DHT22;32667;48.248;-1.700;2023-02-28T11:57:39;7.70;69.40
46926;DHT22;32667;48.248;-1.700;2023-02-28T11:59:51;7.60;69.40
46926;DHT22;32667;48.248;-1.700;2023-02-28T12:04:55;7.70;69.50
46926;DHT22;32667;48.248;-1.700;2023-02-28T12:12:55;7.90;69.40
46926;DHT22;32667;48.248;-1.700;2023-02-28T12:15:32;7.90;69.30
46926;DHT22;32667;48.248;-1.700;2023-02-28T12:20:37;8.00;69.20
46926;DHT22;32667;48.248;-1.700;2023-02-28T12:28:25;8.20;69.20
46926;DHT22;32667;48.248;-1.700;2023-02-28T12:33:24;8.20;69.20
46926;DHT22;32667;48.248;-1.700;2023-02-28T12:35:53;8.20;69.20
46926;DHT22;32667;48.248;-1.700;2023-02-28T12:38:43;8.20;69.20
46926;DHT22;32667;48.248;-1.700;2023-02-28T12:41:12;8.30;69.20
46926;DHT22;32667;48.248;-1.700;2023-02-28T12:43:40;8.30;69.20
46926;DHT22;32667;48.248;-1.700;2023-02-28T12:46:09;8.40;69.10
46926;DHT22;32667;48.248;-1.700;2023-02-28T12:48:56;8.40;69.00
46926;DHT22;32667;48.248;-1.700;2023-02-28T12:51:26;8.50;69.00
46926;DHT22;32667;48.248;-1.700;2023-02-28T12:56:40;8.60;68.90
46926;DHT22;32667;48.248;-1.700;2023-02-28T12:59:12;8.70;68.80
46926;DHT22;32667;48.248;-1.700;2023-02-28T13:01:47;8.70;68.70
46926;DHT22;32667;48.248;-1.700;2023-02-28T13:09:30;9.10;68.40
46926;DHT22;32667;48.248;-1.700;2023-02-28T13:11:56;9.10;68.40
46926;DHT22;32667;48.248;-1.700;2023-02-28T13:14:35;9.10;68.40
46926;DHT22;32667;48.248;-1.700;2023-02-28T13:17:02;9.10;68.60
46926;DHT22;32667;48.248;-1.700;2023-02-28T13:19:32;9.10;68.60
46926;DHT22;32667;48.248;-1.700;2023-02-28T13:21:58;9.20;68.50
46926;DHT22;32667;48.248;-1.700;2023-02-28T13:25:12;9.30;68.50
46926;DHT22;32667;48.248;-1.700;2023-02-28T13:27:24;9.20;68.40
46926;DHT22;32667;48.248;-1.700;2023-02-28T13:30:49;9.20;68.70
46926;DHT22;32667;48.248;-1.700;2023-02-28T13:32:47;9.20;68.80
46926;DHT22;32667;48.248;-1.700;2023-02-28T13:35:42;9.20;68.70
46926;DHT22;32667;48.248;-1.700;2023-02-28T13:38:12;9.20;68.80
46926;DHT22;32667;48.248;-1.700;2023-02-28T13:40:38;9.10;69.00
46926;DHT22;32667;48.248;-1.700;2023-02-28T13:43:06;9.00;69.10
46926;DHT22;32667;48.248;-1.700;2023-02-28T13:45:34;8.90;69.30
46926;DHT22;32667;48.248;-1.700;2023-02-28T13:48:12;8.70;69.50
46926;DHT22;32667;48.248;-1.700;2023-02-28T13:50:43;8.70;69.70
46926;DHT22;32667;48.248;-1.700;2023-02-28T13:56:01;8.50;69.90
46926;DHT22;32667;48.248;-1.700;2023-02-28T14:01:07;8.30;70.20
46926;DHT22;32667;48.248;-1.700;2023-02-28T14:08:53;8.10;70.40
46926;DHT22;32667;48.248;-1.700;2023-02-28T14:11:25;8.10;70.50
46926;DHT22;32667;48.248;-1.700;2023-02-28T14:13:51;8.00;70.50
46926;DHT22;32667;48.248;-1.700;2023-02-28T14:16:20;8.00;70.50
46926;DHT22;32667;48.248;-1.700;2023-02-28T14:21:35;8.00;70.40
46926;DHT22;32667;48.248;-1.700;2023-02-28T14:37:30;8.00;70.40
46926;DHT22;32667;48.248;-1.700;2023-02-28T14:39:58;7.90;70.30
46926;DHT22;32667;48.248;-1.700;2023-02-28T14:42:29;7.90;70.40
46926;DHT22;32667;48.248;-1.700;2023-02-28T14:45:00;7.90;70.50
46926;DHT22;32667;48.248;-1.700;2023-02-28T14:47:27;7.80;70.60
46926;DHT22;32667;48.248;-1.700;2023-02-28T14:50:01;7.80;70.60
46926;DHT22;32667;48.248;-1.700;2023-02-28T14:52:29;7.80;70.60
46926;DHT22;32667;48.248;-1.700;2023-02-28T14:55:04;7.80;70.60
46926;DHT22;32667;48.248;-1.700;2023-02-28T14:57:39;7.80;70.60
46926;DHT22;32667;48.248;-1.700;2023-02-28T15:00:18;7.80;70.60
46926;DHT22;32667;48.248;-1.700;2023-02-28T15:02:49;7.70;70.60
46926;DHT22;32667;48.248;-1.700;2023-02-28T15:07:44;7.70;70.70
46926;DHT22;32667;48.248;-1.700;2023-02-28T15:10:20;7.60;70.70
46926;DHT22;32667;48.248;-1.700;2023-02-28T15:12:51;7.60;70.70
46926;DHT22;32667;48.248;-1.700;2023-02-28T15:15:23;7.70;70.80
46926;DHT22;32667;48.248;-1.700;2023-02-28T15:17:52;7.70;70.80
46926;DHT22;32667;48.248;-1.700;2023-02-28T15:20:20;7.70;70.70
46926;DHT22;32667;48.248;-1.700;2023-02-28T15:22:46;7.70;70.60
46926;DHT22;32667;48.248;-1.700;2023-02-28T15:25:17;7.70;70.60
46926;DHT22;32667;48.248;-1.700;2023-02-28T15:27:45;7.70;70.60
46926;DHT22;32667;48.248;-1.700;2023-02-28T15:30:33;7.60;70.70
46926;DHT22;32667;48.248;-1.700;2023-02-28T15:33:04;7.60;70.70
46926;DHT22;32667;48.248;-1.700;2023-02-28T15:35:33;7.50;70.70
46926;DHT22;32667;48.248;-1.700;2023-02-28T15:38:03;7.50;70.80
46926;DHT22;32667;48.248;-1.700;2023-02-28T15:40:37;7.50;70.80
46926;DHT22;32667;48.248;-1.700;2023-02-28T15:43:07;7.50;70.80
46926;DHT22;32667;48.248;-1.700;2023-02-28T15:48:14;7.40;70.90
46926;DHT22;32667;48.248;-1.700;2023-02-28T15:50:43;7.50;70.90
46926;DHT22;32667;48.248;-1.700;2023-02-28T15:55:56;7.50;70.90
46926;DHT22;32667;48.248;-1.700;2023-02-28T15:58:26;7.50;70.80
46926;DHT22;32667;48.248;-1.700;2023-02-28T16:01:04;7.50;70.80
46926;DHT22;32667;48.248;-1.700;2023-02-28T16:03:49;7.60;70.70
46926;DHT22;32667;48.248;-1.700;2023-02-28T16:06:35;7.60;70.60
46926;DHT22;32667;48.248;-1.700;2023-02-28T16:09:02;7.70;70.50
46926;DHT22;32667;48.248;-1.700;2023-02-28T16:11:28;7.70;70.50
46926;DHT22;32667;48.248;-1.700;2023-02-28T16:13:56;7.60;70.40
46926;DHT22;32667;48.248;-1.700;2023-02-28T16:16:23;7.60;70.50
46926;DHT22;32667;48.248;-1.700;2023-02-28T16:18:49;7.60;70.60
46926;DHT22;32667;48.248;-1.700;2023-02-28T16:21:15;7.60;70.60
46926;DHT22;32667;48.248;-1.700;2023-02-28T16:23:43;7.70;70.60
46926;DHT22;32667;48.248;-1.700;2023-02-28T16:26:21;7.60;70.60
46926;DHT22;32667;48.248;-1.700;2023-02-28T16:28:51;7.70;70.60
46926;DHT22;32667;48.248;-1.700;2023-02-28T16:31:19;7.70;70.60
46926;DHT22;32667;48.248;-1.700;2023-02-28T16:33:45;7.70;70.60
46926;DHT22;32667;48.248;-1.700;2023-02-28T16:36:17;7.70;70.60
46926;DHT22;32667;48.248;-1.700;2023-02-28T16:38:42;7.70;70.60
46926;DHT22;32667;48.248;-1.700;2023-02-28T16:41:08;7.70;70.60
46926;DHT22;32667;48.248;-1.700;2023-02-28T16:43:41;7.70;70.60
46926;DHT22;32667;48.248;-1.700;2023-02-28T16:46:09;7.80;70.60
46926;DHT22;32667;48.248;-1.700;2023-02-28T16:48:43;7.70;70.50
46926;DHT22;32667;48.248;-1.700;2023-02-28T16:51:18;7.70;70.60
46926;DHT22;32667;48.248;-1.700;2023-02-28T16:53:46;7.70;70.60
46926;DHT22;32667;48.248;-1.700;2023-02-28T16:56:21;7.60;70.70
46926;DHT22;32667;48.248;-1.700;2023-02-28T16:58:50;7.60;70.80
46926;DHT22;32667;48.248;-1.700;2023-02-28T17:01:17;7.50;70.80
46926;DHT22;32667;48.248;-1.700;2023-02-28T17:04:00;7.50;70.90
46926;DHT22;32667;48.248;-1.700;2023-02-28T17:06:28;7.50;70.90
46926;DHT22;32667;48.248;-1.700;2023-02-28T17:08:55;7.50;71.00
46926;DHT22;32667;48.248;-1.700;2023-02-28T17:11:25;7.50;71.00
46926;DHT22;32667;48.248;-1.700;2023-02-28T17:13:55;7.50;71.00
46926;DHT22;32667;48.248;-1.700;2023-02-28T17:16:30;7.50;70.90
46926;DHT22;32667;48.248;-1.700;2023-02-28T17:19:00;7.50;70.90
46926;DHT22;32667;48.248;-1.700;2023-02-28T17:21:28;7.50;71.00
46926;DHT22;32667;48.248;-1.700;2023-02-28T17:24:01;7.40;71.00
46926;DHT22;32667;48.248;-1.700;2023-02-28T17:26:27;7.40;71.10
46926;DHT22;32667;48.248;-1.700;2023-02-28T17:28:53;7.40;71.10
46926;DHT22;32667;48.248;-1.700;2023-02-28T17:31:26;7.40;71.00
46926;DHT22;32667;48.248;-1.700;2023-02-28T17:33:53;7.50;71.00
46926;DHT22;32667;48.248;-1.700;2023-02-28T17:36:24;7.50;71.00
46926;DHT22;32667;48.248;-1.700;2023-02-28T17:38:51;7.50;70.90
46926;DHT22;32667;48.248;-1.700;2023-02-28T17:41:17;7.50;70.80
46926;DHT22;32667;48.248;-1.700;2023-02-28T17:43:45;7.60;70.80
46926;DHT22;32667;48.248;-1.700;2023-02-28T17:46:22;7.60;70.80
46926;DHT22;32667;48.248;-1.700;2023-02-28T17:49:05;7.60;70.80
46926;DHT22;32667;48.248;-1.700;2023-02-28T17:51:30;7.60;70.70
46926;DHT22;32667;48.248;-1.700;2023-02-28T17:53:57;7.60;70.70
46926;DHT22;32667;48.248;-1.700;2023-02-28T17:56:25;7.60;70.70
46926;DHT22;32667;48.248;-1.700;2023-02-28T17:58:52;7.70;70.70
46926;DHT22;32667;48.248;-1.700;2023-02-28T18:01:20;7.70;70.70
46926;DHT22;32667;48.248;-1.700;2023-02-28T18:03:46;7.70;70.70